KAYS/AYS METAR and TAF weather

Enter ICAO airport designator
Station Type Date Time Source
KAYS METAR 2024/04/17 18:55 UTC NOAA

KAYS 171855Z AUTO 17008KT 10SM CLR 30/13 A3010 RMK AO2 T02960125


Station Type Date Time Source
KAYS Decoded METAR 2024/04/17 18:55 UTC NOAA

Waycross / Ware County, Ga, GA, United States (KAYS) 31-15N 082-24W 46M
Apr 17, 2024 - 02:55 PM EDT / 2024.04.17 1855 UTC
Wind: from the S (170 degrees) at 9 MPH (8 KT):0
Visibility: 10 mile(s):0
Sky conditions: clear
Temperature: 85.3 F (29.6 C)
Dew Point: 54.5 F (12.5 C)
Relative Humidity: 34%
Pressure (altimeter): 30.1 in. Hg (1019 hPa)
ob: KAYS 171855Z AUTO 17008KT 10SM CLR 30/13 A3010 RMK AO2 T02960125
cycle: 19

Station Type Date Time Source
KAYS TAF UTC NOAA

Error!

Example: see airport list